sensor_id;sensor_type;location;lat;lon;timestamp;P1;durP1;ratioP1;P2;durP2;ratioP2
74808;SDS011;63338;39.544;2.596;2023-06-04T00:00:04;6.57;;;3.20;;
74808;SDS011;63338;39.544;2.596;2023-06-04T00:02:31;5.72;;;3.22;;
74808;SDS011;63338;39.544;2.596;2023-06-04T00:05:09;5.05;;;3.22;;
74808;SDS011;63338;39.544;2.596;2023-06-04T00:07:40;7.75;;;3.70;;
74808;SDS011;63338;39.544;2.596;2023-06-04T00:10:08;7.55;;;4.00;;
74808;SDS011;63338;39.544;2.596;2023-06-04T00:12:36;7.65;;;3.95;;
74808;SDS011;63338;39.544;2.596;2023-06-04T00:15:03;7.20;;;3.90;;
74808;SDS011;63338;39.544;2.596;2023-06-04T00:17:30;6.13;;;3.47;;
74808;SDS011;63338;39.544;2.596;2023-06-04T00:19:57;7.22;;;3.53;;
74808;SDS011;63338;39.544;2.596;2023-06-04T00:22:23;6.40;;;4.10;;
74808;SDS011;63338;39.544;2.596;2023-06-04T00:24:52;6.97;;;3.88;;
74808;SDS011;63338;39.544;2.596;2023-06-04T00:27:19;7.85;;;4.47;;
74808;SDS011;63338;39.544;2.596;2023-06-04T00:29:49;6.97;;;4.00;;
74808;SDS011;63338;39.544;2.596;2023-06-04T00:32:16;7.28;;;4.10;;
74808;SDS011;63338;39.544;2.596;2023-06-04T00:34:50;6.30;;;3.33;;
74808;SDS011;63338;39.544;2.596;2023-06-04T00:37:21;8.43;;;4.38;;
74808;SDS011;63338;39.544;2.596;2023-06-04T00:40:33;8.90;;;4.22;;
74808;SDS011;63338;39.544;2.596;2023-06-04T00:43:15;8.90;;;4.70;;
74808;SDS011;63338;39.544;2.596;2023-06-04T00:46:05;8.70;;;3.75;;
74808;SDS011;63338;39.544;2.596;2023-06-04T00:48:48;7.05;;;4.18;;
74808;SDS011;63338;39.544;2.596;2023-06-04T00:55:25;7.13;;;3.72;;
74808;SDS011;63338;39.544;2.596;2023-06-04T00:57:57;6.88;;;3.92;;
74808;SDS011;63338;39.544;2.596;2023-06-04T01:00:24;7.72;;;3.88;;
74808;SDS011;63338;39.544;2.596;2023-06-04T01:02:52;6.35;;;3.55;;
74808;SDS011;63338;39.544;2.596;2023-06-04T01:05:26;6.22;;;3.55;;
74808;SDS011;63338;39.544;2.596;2023-06-04T01:07:57;7.32;;;3.97;;
74808;SDS011;63338;39.544;2.596;2023-06-04T01:10:25;7.55;;;3.90;;
74808;SDS011;63338;39.544;2.596;2023-06-04T01:12:52;7.47;;;4.15;;
74808;SDS011;63338;39.544;2.596;2023-06-04T01:15:21;8.18;;;3.80;;
74808;SDS011;63338;39.544;2.596;2023-06-04T01:17:49;12.68;;;4.97;;
74808;SDS011;63338;39.544;2.596;2023-06-04T01:26:27;7.65;;;4.40;;
74808;SDS011;63338;39.544;2.596;2023-06-04T01:28:57;10.52;;;4.40;;
74808;SDS011;63338;39.544;2.596;2023-06-04T01:31:25;9.13;;;4.38;;
74808;SDS011;63338;39.544;2.596;2023-06-04T01:33:55;11.48;;;4.50;;
74808;SDS011;63338;39.544;2.596;2023-06-04T01:36:23;7.35;;;3.90;;
74808;SDS011;63338;39.544;2.596;2023-06-04T01:38:52;8.82;;;4.30;;
74808;SDS011;63338;39.544;2.596;2023-06-04T01:41:39;6.88;;;4.70;;
74808;SDS011;63338;39.544;2.596;2023-06-04T01:44:36;10.55;;;4.22;;
74808;SDS011;63338;39.544;2.596;2023-06-04T01:47:06;8.35;;;4.10;;
74808;SDS011;63338;39.544;2.596;2023-06-04T01:49:33;7.35;;;5.18;;
74808;SDS011;63338;39.544;2.596;2023-06-04T01:52:05;6.85;;;4.13;;
74808;SDS011;63338;39.544;2.596;2023-06-04T01:54:39;7.00;;;4.32;;
74808;SDS011;63338;39.544;2.596;2023-06-04T01:57:06;7.55;;;4.85;;
74808;SDS011;63338;39.544;2.596;2023-06-04T01:59:37;10.07;;;4.05;;
74808;SDS011;63338;39.544;2.596;2023-06-04T02:02:04;7.43;;;3.78;;
74808;SDS011;63338;39.544;2.596;2023-06-04T02:04:31;8.43;;;4.40;;
74808;SDS011;63338;39.544;2.596;2023-06-04T02:07:01;8.50;;;4.53;;
74808;SDS011;63338;39.544;2.596;2023-06-04T02:09:28;7.97;;;4.13;;
74808;SDS011;63338;39.544;2.596;2023-06-04T02:11:55;6.60;;;4.10;;
74808;SDS011;63338;39.544;2.596;2023-06-04T02:14:21;6.40;;;4.05;;
74808;SDS011;63338;39.544;2.596;2023-06-04T02:16:48;9.93;;;4.05;;
74808;SDS011;63338;39.544;2.596;2023-06-04T02:19:15;6.47;;;4.20;;
74808;SDS011;63338;39.544;2.596;2023-06-04T02:21:44;7.32;;;4.13;;
74808;SDS011;63338;39.544;2.596;2023-06-04T02:24:12;8.65;;;4.47;;
74808;SDS011;63338;39.544;2.596;2023-06-04T02:26:40;9.23;;;4.47;;
74808;SDS011;63338;39.544;2.596;2023-06-04T02:29:16;8.50;;;4.90;;
74808;SDS011;63338;39.544;2.596;2023-06-04T02:32:31;10.43;;;4.30;;
74808;SDS011;63338;39.544;2.596;2023-06-04T02:35:03;7.55;;;4.78;;
74808;SDS011;63338;39.544;2.596;2023-06-04T02:37:30;7.72;;;4.63;;
74808;SDS011;63338;39.544;2.596;2023-06-04T02:39:57;9.70;;;4.82;;
74808;SDS011;63338;39.544;2.596;2023-06-04T02:42:34;6.80;;;3.92;;
74808;SDS011;63338;39.544;2.596;2023-06-04T02:45:09;9.05;;;5.00;;
74808;SDS011;63338;39.544;2.596;2023-06-04T02:47:40;7.78;;;4.57;;
74808;SDS011;63338;39.544;2.596;2023-06-04T02:50:07;6.93;;;4.65;;
74808;SDS011;63338;39.544;2.596;2023-06-04T02:52:34;9.13;;;4.90;;
74808;SDS011;63338;39.544;2.596;2023-06-04T02:55:06;7.50;;;4.32;;
74808;SDS011;63338;39.544;2.596;2023-06-04T02:57:34;8.93;;;4.90;;
74808;SDS011;63338;39.544;2.596;2023-06-04T03:00:05;11.75;;;5.20;;
74808;SDS011;63338;39.544;2.596;2023-06-04T03:02:39;9.00;;;4.82;;
74808;SDS011;63338;39.544;2.596;2023-06-04T03:05:09;8.80;;;4.35;;
74808;SDS011;63338;39.544;2.596;2023-06-04T03:07:37;9.82;;;4.70;;
74808;SDS011;63338;39.544;2.596;2023-06-04T03:10:05;7.53;;;4.43;;
74808;SDS011;63338;39.544;2.596;2023-06-04T03:12:33;11.85;;;5.80;;
74808;SDS011;63338;39.544;2.596;2023-06-04T03:15:00;10.85;;;6.40;;
74808;SDS011;63338;39.544;2.596;2023-06-04T03:17:29;9.48;;;4.63;;
74808;SDS011;63338;39.544;2.596;2023-06-04T03:20:06;11.68;;;4.63;;
74808;SDS011;63338;39.544;2.596;2023-06-04T03:22:59;10.93;;;4.82;;
74808;SDS011;63338;39.544;2.596;2023-06-04T03:25:26;10.93;;;4.43;;
74808;SDS011;63338;39.544;2.596;2023-06-04T03:27:54;8.35;;;4.43;;
74808;SDS011;63338;39.544;2.596;2023-06-04T03:30:24;7.60;;;4.65;;
74808;SDS011;63338;39.544;2.596;2023-06-04T03:32:51;9.93;;;4.88;;
74808;SDS011;63338;39.544;2.596;2023-06-04T03:35:19;9.25;;;4.80;;
74808;SDS011;63338;39.544;2.596;2023-06-04T03:37:47;9.98;;;4.50;;
74808;SDS011;63338;39.544;2.596;2023-06-04T03:40:14;10.77;;;4.88;;
74808;SDS011;63338;39.544;2.596;2023-06-04T03:42:43;9.02;;;4.60;;
74808;SDS011;63338;39.544;2.596;2023-06-04T03:45:10;7.45;;;4.22;;
74808;SDS011;63338;39.544;2.596;2023-06-04T03:47:39;8.63;;;4.55;;
74808;SDS011;63338;39.544;2.596;2023-06-04T03:50:09;8.60;;;4.35;;
74808;SDS011;63338;39.544;2.596;2023-06-04T03:52:36;9.90;;;4.78;;
74808;SDS011;63338;39.544;2.596;2023-06-04T03:55:03;5.82;;;3.90;;
74808;SDS011;63338;39.544;2.596;2023-06-04T03:57:32;7.40;;;4.40;;
74808;SDS011;63338;39.544;2.596;2023-06-04T04:00:00;10.65;;;5.20;;
74808;SDS011;63338;39.544;2.596;2023-06-04T04:02:27;9.18;;;4.45;;
74808;SDS011;63338;39.544;2.596;2023-06-04T04:04:54;11.27;;;4.63;;
74808;SDS011;63338;39.544;2.596;2023-06-04T04:07:24;9.43;;;4.57;;
74808;SDS011;63338;39.544;2.596;2023-06-04T04:10:00;11.27;;;4.97;;
74808;SDS011;63338;39.544;2.596;2023-06-04T04:13:32;9.05;;;4.30;;
74808;SDS011;63338;39.544;2.596;2023-06-04T04:15:59;7.63;;;4.13;;
74808;SDS011;63338;39.544;2.596;2023-06-04T04:18:26;9.57;;;4.28;;
74808;SDS011;63338;39.544;2.596;2023-06-04T04:20:53;9.45;;;3.90;;
74808;SDS011;63338;39.544;2.596;2023-06-04T04:23:21;8.30;;;4.90;;
74808;SDS011;63338;39.544;2.596;2023-06-04T04:25:48;12.27;;;4.35;;
74808;SDS011;63338;39.544;2.596;2023-06-04T04:28:16;11.95;;;4.47;;
74808;SDS011;63338;39.544;2.596;2023-06-04T04:30:47;11.25;;;3.95;;
74808;SDS011;63338;39.544;2.596;2023-06-04T04:33:14;9.73;;;4.35;;
74808;SDS011;63338;39.544;2.596;2023-06-04T04:35:42;9.30;;;4.80;;
74808;SDS011;63338;39.544;2.596;2023-06-04T04:38:10;7.03;;;4.25;;
74808;SDS011;63338;39.544;2.596;2023-06-04T04:40:38;10.93;;;3.90;;
74808;SDS011;63338;39.544;2.596;2023-06-04T04:43:06;9.20;;;4.05;;
74808;SDS011;63338;39.544;2.596;2023-06-04T04:45:33;9.35;;;3.78;;
74808;SDS011;63338;39.544;2.596;2023-06-04T04:48:01;8.98;;;4.30;;
74808;SDS011;63338;39.544;2.596;2023-06-04T04:50:29;10.10;;;3.92;;
74808;SDS011;63338;39.544;2.596;2023-06-04T04:52:57;8.10;;;3.80;;
74808;SDS011;63338;39.544;2.596;2023-06-04T04:55:24;6.82;;;3.72;;
74808;SDS011;63338;39.544;2.596;2023-06-04T05:01:36;9.40;;;3.55;;
74808;SDS011;63338;39.544;2.596;2023-06-04T05:04:06;8.77;;;3.97;;
74808;SDS011;63338;39.544;2.596;2023-06-04T05:06:33;10.38;;;4.47;;
74808;SDS011;63338;39.544;2.596;2023-06-04T05:09:00;8.48;;;3.67;;
74808;SDS011;63338;39.544;2.596;2023-06-04T05:11:27;8.05;;;4.05;;
74808;SDS011;63338;39.544;2.596;2023-06-04T05:13:53;8.55;;;4.05;;
74808;SDS011;63338;39.544;2.596;2023-06-04T05:16:20;8.32;;;3.03;;
74808;SDS011;63338;39.544;2.596;2023-06-04T05:18:51;7.65;;;3.92;;
74808;SDS011;63338;39.544;2.596;2023-06-04T05:21:17;8.95;;;3.97;;
74808;SDS011;63338;39.544;2.596;2023-06-04T05:23:43;7.57;;;3.50;;
74808;SDS011;63338;39.544;2.596;2023-06-04T05:26:13;7.45;;;3.70;;
74808;SDS011;63338;39.544;2.596;2023-06-04T05:28:40;11.25;;;4.95;;
74808;SDS011;63338;39.544;2.596;2023-06-04T05:31:11;9.02;;;4.00;;
74808;SDS011;63338;39.544;2.596;2023-06-04T05:33:38;9.55;;;4.60;;
74808;SDS011;63338;39.544;2.596;2023-06-04T05:36:06;10.00;;;4.15;;
74808;SDS011;63338;39.544;2.596;2023-06-04T05:38:33;6.95;;;3.97;;
74808;SDS011;63338;39.544;2.596;2023-06-04T05:41:01;10.98;;;5.00;;
74808;SDS011;63338;39.544;2.596;2023-06-04T05:43:28;9.55;;;5.72;;
74808;SDS011;63338;39.544;2.596;2023-06-04T05:45:55;10.23;;;5.55;;
74808;SDS011;63338;39.544;2.596;2023-06-04T05:52:17;10.27;;;5.15;;
74808;SDS011;63338;39.544;2.596;2023-06-04T05:54:45;8.35;;;5.25;;
74808;SDS011;63338;39.544;2.596;2023-06-04T05:57:12;11.13;;;5.00;;
74808;SDS011;63338;39.544;2.596;2023-06-04T05:59:41;10.75;;;5.15;;
74808;SDS011;63338;39.544;2.596;2023-06-04T06:02:08;8.55;;;5.57;;
74808;SDS011;63338;39.544;2.596;2023-06-04T06:04:36;10.45;;;5.40;;
74808;SDS011;63338;39.544;2.596;2023-06-04T06:07:06;10.77;;;5.53;;
74808;SDS011;63338;39.544;2.596;2023-06-04T06:12:02;12.88;;;5.72;;
74808;SDS011;63338;39.544;2.596;2023-06-04T06:14:32;11.20;;;5.90;;
74808;SDS011;63338;39.544;2.596;2023-06-04T06:16:59;12.32;;;6.20;;
74808;SDS011;63338;39.544;2.596;2023-06-04T06:19:30;10.27;;;7.03;;
74808;SDS011;63338;39.544;2.596;2023-06-04T06:21:56;14.52;;;7.47;;
74808;SDS011;63338;39.544;2.596;2023-06-04T06:24:25;11.98;;;6.10;;
74808;SDS011;63338;39.544;2.596;2023-06-04T06:26:51;9.65;;;6.93;;
74808;SDS011;63338;39.544;2.596;2023-06-04T06:29:18;10.02;;;6.35;;
74808;SDS011;63338;39.544;2.596;2023-06-04T06:31:46;8.48;;;6.03;;
74808;SDS011;63338;39.544;2.596;2023-06-04T06:34:14;12.02;;;5.47;;
74808;SDS011;63338;39.544;2.596;2023-06-04T06:36:48;8.77;;;5.13;;
74808;SDS011;63338;39.544;2.596;2023-06-04T06:39:39;9.82;;;5.38;;
74808;SDS011;63338;39.544;2.596;2023-06-04T06:42:09;9.77;;;5.03;;
74808;SDS011;63338;39.544;2.596;2023-06-04T06:44:37;13.50;;;5.10;;
74808;SDS011;63338;39.544;2.596;2023-06-04T06:47:05;7.55;;;5.20;;
74808;SDS011;63338;39.544;2.596;2023-06-04T06:49:35;9.73;;;4.60;;
74808;SDS011;63338;39.544;2.596;2023-06-04T06:52:11;10.77;;;4.55;;
74808;SDS011;63338;39.544;2.596;2023-06-04T06:54:44;11.82;;;4.80;;
74808;SDS011;63338;39.544;2.596;2023-06-04T06:57:16;12.57;;;6.15;;
74808;SDS011;63338;39.544;2.596;2023-06-04T06:59:43;8.57;;;4.88;;
74808;SDS011;63338;39.544;2.596;2023-06-04T07:02:23;7.70;;;4.00;;
74808;SDS011;63338;39.544;2.596;2023-06-04T07:04:52;9.93;;;4.22;;
74808;SDS011;63338;39.544;2.596;2023-06-04T07:07:42;8.45;;;3.95;;
74808;SDS011;63338;39.544;2.596;2023-06-04T07:10:09;7.57;;;3.55;;
74808;SDS011;63338;39.544;2.596;2023-06-04T07:12:37;13.07;;;3.97;;
74808;SDS011;63338;39.544;2.596;2023-06-04T07:15:05;7.25;;;3.83;;
74808;SDS011;63338;39.544;2.596;2023-06-04T07:17:34;9.82;;;3.60;;
74808;SDS011;63338;39.544;2.596;2023-06-04T07:20:02;8.75;;;4.05;;
74808;SDS011;63338;39.544;2.596;2023-06-04T07:22:34;9.63;;;4.10;;
74808;SDS011;63338;39.544;2.596;2023-06-04T07:28:30;6.85;;;3.72;;
74808;SDS011;63338;39.544;2.596;2023-06-04T07:31:06;7.28;;;3.50;;
74808;SDS011;63338;39.544;2.596;2023-06-04T07:33:37;9.40;;;3.40;;
74808;SDS011;63338;39.544;2.596;2023-06-04T07:36:10;9.88;;;3.47;;
74808;SDS011;63338;39.544;2.596;2023-06-04T07:38:44;7.82;;;3.50;;
74808;SDS011;63338;39.544;2.596;2023-06-04T07:41:17;6.72;;;4.15;;
74808;SDS011;63338;39.544;2.596;2023-06-04T07:43:44;10.10;;;4.10;;
74808;SDS011;63338;39.544;2.596;2023-06-04T07:46:15;6.78;;;3.40;;
74808;SDS011;63338;39.544;2.596;2023-06-04T07:48:52;9.23;;;3.55;;
74808;SDS011;63338;39.544;2.596;2023-06-04T07:51:24;9.07;;;3.22;;
74808;SDS011;63338;39.544;2.596;2023-06-04T07:53:52;10.55;;;3.47;;
74808;SDS011;63338;39.544;2.596;2023-06-04T07:56:22;7.90;;;3.10;;
74808;SDS011;63338;39.544;2.596;2023-06-04T07:58:49;6.07;;;3.38;;
74808;SDS011;63338;39.544;2.596;2023-06-04T08:01:17;7.20;;;2.80;;
74808;SDS011;63338;39.544;2.596;2023-06-04T08:03:45;14.23;;;3.08;;
74808;SDS011;63338;39.544;2.596;2023-06-04T08:06:13;9.15;;;3.13;;
74808;SDS011;63338;39.544;2.596;2023-06-04T08:08:45;8.30;;;3.03;;
74808;SDS011;63338;39.544;2.596;2023-06-04T08:11:15;8.25;;;3.50;;
74808;SDS011;63338;39.544;2.596;2023-06-04T08:13:41;9.93;;;3.10;;
74808;SDS011;63338;39.544;2.596;2023-06-04T08:16:08;7.68;;;3.20;;
74808;SDS011;63338;39.544;2.596;2023-06-04T08:18:39;10.07;;;3.00;;
74808;SDS011;63338;39.544;2.596;2023-06-04T08:21:08;8.88;;;2.80;;
74808;SDS011;63338;39.544;2.596;2023-06-04T08:23:39;7.20;;;2.63;;
74808;SDS011;63338;39.544;2.596;2023-06-04T08:26:06;4.93;;;2.13;;
74808;SDS011;63338;39.544;2.596;2023-06-04T08:28:32;11.73;;;3.30;;
74808;SDS011;63338;39.544;2.596;2023-06-04T08:30:58;7.43;;;2.40;;
74808;SDS011;63338;39.544;2.596;2023-06-04T08:33:27;14.93;;;4.88;;
74808;SDS011;63338;39.544;2.596;2023-06-04T08:36:06;8.80;;;2.53;;
74808;SDS011;63338;39.544;2.596;2023-06-04T08:38:32;8.90;;;3.17;;
74808;SDS011;63338;39.544;2.596;2023-06-04T08:41:01;8.68;;;2.75;;
74808;SDS011;63338;39.544;2.596;2023-06-04T08:43:47;9.80;;;3.75;;
74808;SDS011;63338;39.544;2.596;2023-06-04T08:46:37;7.82;;;3.00;;
74808;SDS011;63338;39.544;2.596;2023-06-04T08:49:35;5.28;;;2.42;;
74808;SDS011;63338;39.544;2.596;2023-06-04T08:52:09;6.80;;;2.67;;
74808;SDS011;63338;39.544;2.596;2023-06-04T08:54:36;9.70;;;2.30;;
74808;SDS011;63338;39.544;2.596;2023-06-04T08:57:04;7.10;;;2.08;;
74808;SDS011;63338;39.544;2.596;2023-06-04T08:59:31;6.55;;;2.25;;
74808;SDS011;63338;39.544;2.596;2023-06-04T09:01:58;7.07;;;2.15;;
74808;SDS011;63338;39.544;2.596;2023-06-04T09:04:43;8.77;;;2.83;;
74808;SDS011;63338;39.544;2.596;2023-06-04T09:07:11;6.15;;;1.90;;
74808;SDS011;63338;39.544;2.596;2023-06-04T09:09:47;7.72;;;2.63;;
74808;SDS011;63338;39.544;2.596;2023-06-04T09:12:20;7.43;;;1.80;;
74808;SDS011;63338;39.544;2.596;2023-06-04T09:14:48;4.15;;;1.67;;
74808;SDS011;63338;39.544;2.596;2023-06-04T09:17:21;6.53;;;1.85;;
74808;SDS011;63338;39.544;2.596;2023-06-04T09:19:48;5.70;;;2.00;;
74808;SDS011;63338;39.544;2.596;2023-06-04T09:22:15;6.25;;;1.63;;
74808;SDS011;63338;39.544;2.596;2023-06-04T09:24:42;6.00;;;1.73;;
74808;SDS011;63338;39.544;2.596;2023-06-04T09:27:17;7.88;;;1.73;;
74808;SDS011;63338;39.544;2.596;2023-06-04T09:32:21;4.43;;;1.45;;
74808;SDS011;63338;39.544;2.596;2023-06-04T09:37:54;8.57;;;2.15;;
74808;SDS011;63338;39.544;2.596;2023-06-04T09:40:21;4.47;;;1.30;;
74808;SDS011;63338;39.544;2.596;2023-06-04T09:42:49;5.55;;;1.30;;
74808;SDS011;63338;39.544;2.596;2023-06-04T09:45:28;7.47;;;1.48;;
74808;SDS011;63338;39.544;2.596;2023-06-04T09:48:00;3.40;;;1.05;;
74808;SDS011;63338;39.544;2.596;2023-06-04T09:52:58;5.80;;;1.40;;
74808;SDS011;63338;39.544;2.596;2023-06-04T09:55:37;5.45;;;1.70;;
74808;SDS011;63338;39.544;2.596;2023-06-04T09:58:45;5.07;;;1.58;;
74808;SDS011;63338;39.544;2.596;2023-06-04T10:01:15;5.32;;;1.65;;
74808;SDS011;63338;39.544;2.596;2023-06-04T10:03:46;6.53;;;1.58;;
74808;SDS011;63338;39.544;2.596;2023-06-04T10:06:14;5.43;;;1.60;;
74808;SDS011;63338;39.544;2.596;2023-06-04T10:08:42;5.32;;;1.25;;
74808;SDS011;63338;39.544;2.596;2023-06-04T10:13:45;5.15;;;1.63;;
74808;SDS011;63338;39.544;2.596;2023-06-04T10:16:17;4.70;;;1.30;;
74808;SDS011;63338;39.544;2.596;2023-06-04T10:18:48;4.13;;;1.10;;
74808;SDS011;63338;39.544;2.596;2023-06-04T10:21:19;3.75;;;1.20;;
74808;SDS011;63338;39.544;2.596;2023-06-04T10:23:51;6.45;;;1.33;;
74808;SDS011;63338;39.544;2.596;2023-06-04T10:26:17;6.53;;;2.00;;
74808;SDS011;63338;39.544;2.596;2023-06-04T10:28:47;4.80;;;1.45;;
74808;SDS011;63338;39.544;2.596;2023-06-04T10:31:15;4.70;;;1.20;;
74808;SDS011;63338;39.544;2.596;2023-06-04T10:33:43;5.13;;;1.50;;
74808;SDS011;63338;39.544;2.596;2023-06-04T10:36:19;6.53;;;1.60;;
74808;SDS011;63338;39.544;2.596;2023-06-04T10:38:50;3.95;;;1.20;;
74808;SDS011;63338;39.544;2.596;2023-06-04T10:41:18;4.38;;;1.42;;
74808;SDS011;63338;39.544;2.596;2023-06-04T10:47:36;5.13;;;1.70;;
74808;SDS011;63338;39.544;2.596;2023-06-04T10:50:07;9.07;;;1.52;;
74808;SDS011;63338;39.544;2.596;2023-06-04T10:52:38;6.03;;;1.60;;
74808;SDS011;63338;39.544;2.596;2023-06-04T10:55:06;4.30;;;1.60;;
74808;SDS011;63338;39.544;2.596;2023-06-04T10:57:36;5.57;;;1.90;;
74808;SDS011;63338;39.544;2.596;2023-06-04T11:00:03;5.38;;;1.48;;
74808;SDS011;63338;39.544;2.596;2023-06-04T11:02:34;6.32;;;1.48;;
74808;SDS011;63338;39.544;2.596;2023-06-04T11:08:32;7.68;;;2.05;;
74808;SDS011;63338;39.544;2.596;2023-06-04T11:11:10;4.10;;;1.10;;
74808;SDS011;63338;39.544;2.596;2023-06-04T11:13:38;7.00;;;1.77;;
74808;SDS011;63338;39.544;2.596;2023-06-04T11:16:14;4.97;;;1.60;;
74808;SDS011;63338;39.544;2.596;2023-06-04T11:18:56;6.82;;;1.77;;
74808;SDS011;63338;39.544;2.596;2023-06-04T11:21:24;5.18;;;1.60;;
74808;SDS011;63338;39.544;2.596;2023-06-04T11:24:00;8.55;;;1.98;;
74808;SDS011;63338;39.544;2.596;2023-06-04T11:26:32;5.20;;;1.73;;
74808;SDS011;63338;39.544;2.596;2023-06-04T11:29:00;4.38;;;1.80;;
74808;SDS011;63338;39.544;2.596;2023-06-04T11:31:29;5.78;;;2.03;;
74808;SDS011;63338;39.544;2.596;2023-06-04T11:37:09;7.20;;;2.13;;
74808;SDS011;63338;39.544;2.596;2023-06-04T11:39:37;5.00;;;1.92;;
74808;SDS011;63338;39.544;2.596;2023-06-04T11:42:05;7.72;;;2.20;;
74808;SDS011;63338;39.544;2.596;2023-06-04T11:44:32;7.60;;;2.55;;
74808;SDS011;63338;39.544;2.596;2023-06-04T11:46:59;5.05;;;1.67;;
74808;SDS011;63338;39.544;2.596;2023-06-04T11:49:26;4.57;;;2.00;;
74808;SDS011;63338;39.544;2.596;2023-06-04T11:51:53;6.32;;;2.13;;
74808;SDS011;63338;39.544;2.596;2023-06-04T11:54:20;5.32;;;2.00;;
74808;SDS011;63338;39.544;2.596;2023-06-04T11:56:50;8.75;;;2.33;;
74808;SDS011;63338;39.544;2.596;2023-06-04T11:59:21;6.40;;;1.98;;
74808;SDS011;63338;39.544;2.596;2023-06-04T12:01:49;7.68;;;2.10;;
74808;SDS011;63338;39.544;2.596;2023-06-04T12:04:16;7.65;;;2.20;;
74808;SDS011;63338;39.544;2.596;2023-06-04T12:06:53;5.03;;;1.50;;
74808;SDS011;63338;39.544;2.596;2023-06-04T12:09:27;6.00;;;1.90;;
74808;SDS011;63338;39.544;2.596;2023-06-04T12:12:02;8.82;;;2.00;;
74808;SDS011;63338;39.544;2.596;2023-06-04T12:14:31;4.75;;;1.95;;
74808;SDS011;63338;39.544;2.596;2023-06-04T12:19:57;5.50;;;2.17;;
74808;SDS011;63338;39.544;2.596;2023-06-04T12:26:22;7.03;;;2.58;;
74808;SDS011;63338;39.544;2.596;2023-06-04T12:29:01;5.18;;;2.05;;
74808;SDS011;63338;39.544;2.596;2023-06-04T12:31:27;4.75;;;2.10;;
74808;SDS011;63338;39.544;2.596;2023-06-04T12:33:58;5.05;;;2.08;;
74808;SDS011;63338;39.544;2.596;2023-06-04T12:36:25;12.30;;;2.88;;
74808;SDS011;63338;39.544;2.596;2023-06-04T12:38:51;8.32;;;2.97;;
74808;SDS011;63338;39.544;2.596;2023-06-04T12:41:17;9.82;;;3.05;;
74808;SDS011;63338;39.544;2.596;2023-06-04T12:43:44;8.30;;;3.10;;
74808;SDS011;63338;39.544;2.596;2023-06-04T12:46:14;9.90;;;3.38;;
74808;SDS011;63338;39.544;2.596;2023-06-04T12:48:41;7.13;;;3.20;;
74808;SDS011;63338;39.544;2.596;2023-06-04T12:51:08;22.98;;;7.32;;
74808;SDS011;63338;39.544;2.596;2023-06-04T12:53:41;28.13;;;19.13;;
74808;SDS011;63338;39.544;2.596;2023-06-04T12:56:08;21.30;;;11.05;;
74808;SDS011;63338;39.544;2.596;2023-06-04T12:58:35;15.35;;;8.15;;
74808;SDS011;63338;39.544;2.596;2023-06-04T13:01:02;14.30;;;7.80;;
74808;SDS011;63338;39.544;2.596;2023-06-04T13:03:29;8.18;;;3.83;;
74808;SDS011;63338;39.544;2.596;2023-06-04T13:05:56;11.60;;;4.10;;
74808;SDS011;63338;39.544;2.596;2023-06-04T13:08:26;7.03;;;3.50;;
74808;SDS011;63338;39.544;2.596;2023-06-04T13:10:54;9.52;;;3.78;;
74808;SDS011;63338;39.544;2.596;2023-06-04T13:13:28;8.70;;;3.47;;
74808;SDS011;63338;39.544;2.596;2023-06-04T13:16:09;6.28;;;2.97;;
74808;SDS011;63338;39.544;2.596;2023-06-04T13:18:35;5.55;;;2.35;;
74808;SDS011;63338;39.544;2.596;2023-06-04T13:21:01;4.80;;;2.40;;
74808;SDS011;63338;39.544;2.596;2023-06-04T13:23:28;6.80;;;2.20;;
74808;SDS011;63338;39.544;2.596;2023-06-04T13:25:54;7.40;;;2.45;;
74808;SDS011;63338;39.544;2.596;2023-06-04T13:28:21;3.75;;;1.77;;
74808;SDS011;63338;39.544;2.596;2023-06-04T13:30:48;7.15;;;1.95;;
74808;SDS011;63338;39.544;2.596;2023-06-04T13:33:15;9.27;;;2.35;;
74808;SDS011;63338;39.544;2.596;2023-06-04T13:35:42;5.38;;;2.20;;
74808;SDS011;63338;39.544;2.596;2023-06-04T13:38:10;5.47;;;2.13;;
74808;SDS011;63338;39.544;2.596;2023-06-04T13:40:38;4.75;;;2.15;;
74808;SDS011;63338;39.544;2.596;2023-06-04T13:43:05;6.25;;;2.22;;
74808;SDS011;63338;39.544;2.596;2023-06-04T13:45:35;4.97;;;2.35;;
74808;SDS011;63338;39.544;2.596;2023-06-04T13:48:10;8.90;;;2.00;;
74808;SDS011;63338;39.544;2.596;2023-06-04T13:50:40;5.68;;;1.90;;
74808;SDS011;63338;39.544;2.596;2023-06-04T13:53:10;5.82;;;2.30;;
74808;SDS011;63338;39.544;2.596;2023-06-04T13:55:38;5.70;;;2.10;;
74808;SDS011;63338;39.544;2.596;2023-06-04T13:58:08;6.50;;;1.92;;
74808;SDS011;63338;39.544;2.596;2023-06-04T14:04:00;6.55;;;1.90;;
74808;SDS011;63338;39.544;2.596;2023-06-04T14:06:27;4.93;;;2.35;;
74808;SDS011;63338;39.544;2.596;2023-06-04T14:08:53;6.35;;;1.42;;
74808;SDS011;63338;39.544;2.596;2023-06-04T14:11:23;4.97;;;1.55;;
74808;SDS011;63338;39.544;2.596;2023-06-04T14:13:50;4.80;;;1.40;;
74808;SDS011;63338;39.544;2.596;2023-06-04T14:16:16;5.38;;;1.80;;
74808;SDS011;63338;39.544;2.596;2023-06-04T14:18:43;6.10;;;1.20;;
74808;SDS011;63338;39.544;2.596;2023-06-04T14:21:10;4.95;;;1.10;;
74808;SDS011;63338;39.544;2.596;2023-06-04T14:23:42;7.22;;;1.10;;
74808;SDS011;63338;39.544;2.596;2023-06-04T14:26:09;3.80;;;1.00;;
74808;SDS011;63338;39.544;2.596;2023-06-04T14:28:37;4.07;;;0.90;;
74808;SDS011;63338;39.544;2.596;2023-06-04T14:31:09;4.60;;;1.25;;
74808;SDS011;63338;39.544;2.596;2023-06-04T14:33:35;10.10;;;5.25;;
74808;SDS011;63338;39.544;2.596;2023-06-04T14:36:02;11.93;;;3.88;;
74808;SDS011;63338;39.544;2.596;2023-06-04T14:38:29;7.05;;;2.80;;
74808;SDS011;63338;39.544;2.596;2023-06-04T14:40:56;9.07;;;2.00;;
74808;SDS011;63338;39.544;2.596;2023-06-04T14:43:26;4.38;;;1.55;;
74808;SDS011;63338;39.544;2.596;2023-06-04T14:46:02;3.47;;;1.50;;
74808;SDS011;63338;39.544;2.596;2023-06-04T14:48:40;8.65;;;1.25;;
74808;SDS011;63338;39.544;2.596;2023-06-04T14:51:07;5.32;;;1.13;;
74808;SDS011;63338;39.544;2.596;2023-06-04T14:53:58;2.55;;;0.95;;
74808;SDS011;63338;39.544;2.596;2023-06-04T14:56:30;4.07;;;1.10;;
74808;SDS011;63338;39.544;2.596;2023-06-04T14:59:01;4.78;;;0.93;;
74808;SDS011;63338;39.544;2.596;2023-06-04T15:01:41;16.05;;;8.93;;
74808;SDS011;63338;39.544;2.596;2023-06-04T15:04:12;6.72;;;3.88;;
74808;SDS011;63338;39.544;2.596;2023-06-04T15:06:40;6.90;;;2.30;;
74808;SDS011;63338;39.544;2.596;2023-06-04T15:09:24;9.82;;;3.45;;
74808;SDS011;63338;39.544;2.596;2023-06-04T15:11:51;7.20;;;2.10;;
74808;SDS011;63338;39.544;2.596;2023-06-04T15:14:28;4.18;;;1.40;;
74808;SDS011;63338;39.544;2.596;2023-06-04T15:17:04;6.90;;;1.42;;
74808;SDS011;63338;39.544;2.596;2023-06-04T15:19:35;4.75;;;1.20;;
74808;SDS011;63338;39.544;2.596;2023-06-04T15:22:15;9.18;;;3.38;;
74808;SDS011;63338;39.544;2.596;2023-06-04T15:24:46;14.23;;;8.77;;
74808;SDS011;63338;39.544;2.596;2023-06-04T15:27:12;6.22;;;3.28;;
74808;SDS011;63338;39.544;2.596;2023-06-04T15:29:39;5.03;;;2.10;;
74808;SDS011;63338;39.544;2.596;2023-06-04T15:32:06;6.60;;;1.83;;
74808;SDS011;63338;39.544;2.596;2023-06-04T15:34:32;5.07;;;1.73;;
74808;SDS011;63338;39.544;2.596;2023-06-04T15:37:02;3.28;;;1.27;;
74808;SDS011;63338;39.544;2.596;2023-06-04T15:39:48;4.22;;;1.70;;
74808;SDS011;63338;39.544;2.596;2023-06-04T15:43:25;3.63;;;1.05;;
74808;SDS011;63338;39.544;2.596;2023-06-04T15:45:52;3.65;;;1.33;;
74808;SDS011;63338;39.544;2.596;2023-06-04T15:48:19;3.90;;;1.27;;
74808;SDS011;63338;39.544;2.596;2023-06-04T15:50:45;5.35;;;1.65;;
74808;SDS011;63338;39.544;2.596;2023-06-04T15:53:11;3.88;;;1.00;;
74808;SDS011;63338;39.544;2.596;2023-06-04T15:55:40;2.42;;;0.80;;
74808;SDS011;63338;39.544;2.596;2023-06-04T15:58:15;7.68;;;4.22;;
74808;SDS011;63338;39.544;2.596;2023-06-04T16:00:42;11.57;;;7.82;;